createdAt,value
2023-03-25T00:01:18.161Z,85.38
2023-03-25T00:03:50.881Z,85.32
2023-03-25T00:06:19.059Z,85.93
2023-03-25T00:08:47.068Z,86.10
2023-03-25T00:11:16.558Z,87.11
2023-03-25T00:13:44.661Z,87.73
2023-03-25T00:16:12.668Z,87.78
2023-03-25T00:18:40.597Z,88.94
2023-03-25T00:21:11.839Z,89.09
2023-03-25T00:23:40.663Z,91.04
2023-03-25T00:26:09.288Z,92.02
2023-03-25T00:28:40.074Z,92.39
2023-03-25T00:31:10.366Z,93.20
2023-03-25T00:33:43.948Z,94.16
2023-03-25T00:36:14.625Z,95.04
2023-03-25T00:38:50.788Z,94.43
2023-03-25T00:41:22.991Z,94.75
2023-03-25T00:43:56.873Z,95.83
2023-03-25T00:46:27.556Z,95.55
2023-03-25T00:48:57.204Z,95.77
2023-03-25T00:51:27.051Z,96.62
2023-03-25T00:53:56.950Z,97.73
2023-03-25T00:56:25.660Z,98.26
2023-03-25T00:58:56.576Z,99.20
2023-03-25T01:01:27.269Z,100.00
2023-03-25T01:03:58.775Z,100.00
2023-03-25T01:06:29.948Z,100.00
2023-03-25T01:08:58.804Z,100.00
2023-03-25T01:11:29.511Z,100.00
2023-03-25T01:14:00.393Z,100.00
2023-03-25T01:16:28.782Z,100.00
2023-03-25T01:18:57.275Z,100.00
2023-03-25T01:21:25.451Z,100.00
2023-03-25T01:23:53.545Z,100.00
2023-03-25T01:26:21.772Z,100.00
2023-03-25T01:28:49.731Z,100.00
2023-03-25T01:31:19.010Z,100.00
2023-03-25T01:33:46.936Z,100.00
2023-03-25T01:36:14.943Z,100.00
2023-03-25T01:38:43.508Z,100.00
2023-03-25T01:41:12.606Z,100.00
2023-03-25T01:43:40.522Z,100.00
2023-03-25T01:46:15.129Z,100.00
2023-03-25T01:48:46.526Z,100.00
2023-03-25T01:51:18.319Z,100.00
2023-03-25T01:53:46.372Z,100.00
2023-03-25T01:56:19.608Z,100.00
2023-03-25T01:58:51.234Z,100.00
2023-03-25T02:01:34.573Z,100.00
2023-03-25T02:04:10.031Z,100.00
2023-03-25T02:06:43.056Z,100.00
2023-03-25T02:09:11.993Z,100.00
2023-03-25T02:11:40.488Z,100.00
2023-03-25T02:14:11.063Z,100.00
2023-03-25T02:16:50.369Z,100.00
2023-03-25T02:19:53.551Z,100.00
2023-03-25T02:22:51.193Z,100.00
2023-03-25T02:26:03.442Z,100.00
2023-03-25T02:28:40.962Z,100.00
2023-03-25T02:31:41.221Z,100.00
2023-03-25T02:34:34.423Z,100.00
2023-03-25T02:37:35.390Z,100.00
2023-03-25T02:40:08.050Z,100.00
2023-03-25T02:42:41.296Z,100.00
2023-03-25T02:45:15.655Z,100.00
2023-03-25T02:47:48.545Z,100.00
2023-03-25T02:50:22.238Z,100.00
2023-03-25T02:52:56.598Z,100.00
2023-03-25T02:55:30.569Z,100.00
2023-03-25T02:58:01.755Z,100.00
2023-03-25T03:00:30.930Z,100.00
2023-03-25T03:03:01.276Z,100.00
2023-03-25T03:05:31.683Z,100.00
2023-03-25T03:08:19.130Z,100.00
2023-03-25T03:10:54.102Z,100.00
2023-03-25T03:13:31.679Z,100.00
2023-03-25T03:16:08.450Z,100.00
2023-03-25T03:18:46.225Z,100.00
2023-03-25T03:21:24.285Z,100.00
2023-03-25T03:23:57.641Z,100.00
2023-03-25T03:26:32.485Z,100.00
2023-03-25T03:29:11.564Z,100.00
2023-03-25T03:31:48.637Z,100.00
2023-03-25T03:34:36.656Z,100.00
2023-03-25T03:37:05.852Z,100.00
2023-03-25T03:39:36.584Z,100.00
2023-03-25T03:42:09.201Z,100.00
2023-03-25T03:44:42.564Z,100.00
2023-03-25T03:47:14.083Z,100.00
2023-03-25T03:49:52.069Z,100.00
2023-03-25T03:52:25.635Z,100.00
2023-03-25T03:55:00.462Z,100.00
2023-03-25T03:57:38.625Z,100.00
2023-03-25T04:02:39.987Z,100.00
2023-03-25T04:05:11.525Z,100.00
2023-03-25T04:07:43.766Z,100.00
2023-03-25T04:10:15.869Z,100.00
2023-03-25T04:12:49.344Z,100.00
2023-03-25T04:15:18.264Z,100.00
2023-03-25T04:17:50.464Z,100.00
2023-03-25T04:20:25.068Z,100.00
2023-03-25T04:22:53.773Z,100.00
2023-03-25T04:25:25.251Z,100.00
2023-03-25T04:27:59.423Z,100.00
2023-03-25T04:30:28.550Z,100.00
2023-03-25T04:32:57.153Z,100.00
2023-03-25T04:35:25.993Z,100.00
2023-03-25T04:37:57.438Z,100.00
2023-03-25T04:40:26.844Z,100.00
2023-03-25T04:42:56.933Z,100.00
2023-03-25T04:45:25.517Z,100.00
2023-03-25T04:47:55.493Z,100.00
2023-03-25T04:50:27.262Z,100.00
2023-03-25T04:52:57.588Z,100.00
2023-03-25T04:55:26.841Z,100.00
2023-03-25T04:57:56.299Z,100.00
2023-03-25T05:00:26.185Z,100.00
2023-03-25T05:02:56.166Z,100.00
2023-03-25T05:05:26.404Z,100.00
2023-03-25T05:07:58.243Z,100.00
2023-03-25T05:10:29.758Z,96.91
2023-03-25T05:13:01.522Z,94.80
2023-03-25T05:15:30.664Z,91.77
2023-03-25T05:17:58.607Z,90.49
2023-03-25T05:20:26.561Z,89.17
2023-03-25T05:22:57.635Z,87.87
2023-03-25T05:25:26.061Z,86.83
2023-03-25T05:27:54.665Z,86.70
2023-03-25T05:30:24.605Z,84.53
2023-03-25T05:32:56.235Z,83.37
2023-03-25T05:35:26.781Z,80.51
2023-03-25T05:37:55.963Z,78.85
2023-03-25T05:40:24.138Z,79.61
2023-03-25T05:42:54.934Z,78.15
2023-03-25T05:45:24.530Z,76.87
2023-03-25T05:47:52.434Z,76.53
2023-03-25T05:50:21.678Z,75.10
2023-03-25T05:52:51.969Z,74.77
2023-03-25T05:55:22.647Z,73.60
2023-03-25T05:57:50.828Z,72.03
2023-03-25T06:00:23.887Z,71.96
2023-03-25T06:02:53.819Z,70.51
2023-03-25T06:05:23.856Z,71.70
2023-03-25T06:07:52.174Z,71.36
2023-03-25T06:10:20.942Z,70.39
2023-03-25T06:12:50.072Z,69.86
2023-03-25T06:15:21.270Z,69.68
2023-03-25T06:17:49.163Z,69.17
2023-03-25T06:20:20.148Z,68.35
2023-03-25T06:22:48.108Z,67.22
2023-03-25T06:25:19.556Z,66.80
2023-03-25T06:27:48.696Z,66.93
2023-03-25T06:30:18.803Z,67.48
2023-03-25T06:32:50.694Z,67.23
2023-03-25T06:35:21.457Z,66.18
2023-03-25T06:37:50.462Z,66.09
2023-03-25T06:40:18.533Z,65.47
2023-03-25T06:42:46.476Z,64.55
2023-03-25T06:45:14.395Z,64.79
2023-03-25T06:47:42.307Z,64.46
2023-03-25T06:50:10.803Z,65.89
2023-03-25T06:52:40.133Z,66.50
2023-03-25T06:55:09.088Z,66.07
2023-03-25T06:57:37.858Z,68.17
2023-03-25T07:00:09.965Z,68.95
2023-03-25T07:02:37.927Z,66.85
2023-03-25T07:05:06.530Z,64.97
2023-03-25T07:07:34.433Z,65.39
2023-03-25T07:10:03.724Z,64.50
2023-03-25T07:12:31.700Z,65.86
2023-03-25T07:14:59.570Z,64.05
2023-03-25T07:17:28.174Z,63.19
2023-03-25T07:19:56.030Z,63.86
2023-03-25T07:22:23.971Z,62.04
2023-03-25T07:24:52.326Z,61.09
2023-03-25T07:27:21.644Z,60.96
2023-03-25T07:29:49.606Z,61.26
2023-03-25T07:32:17.510Z,60.04
2023-03-25T07:34:45.594Z,59.54
2023-03-25T07:37:13.676Z,59.42
2023-03-25T07:39:41.914Z,59.24
2023-03-25T07:42:09.935Z,59.04
2023-03-25T07:44:39.232Z,58.07
2023-03-25T07:47:07.084Z,58.65
2023-03-25T07:49:34.955Z,58.62
2023-03-25T07:52:02.890Z,57.63
2023-03-25T07:54:30.762Z,56.27
2023-03-25T07:56:58.927Z,55.70
2023-03-25T07:59:29.288Z,55.68
2023-03-25T08:01:59.036Z,54.77
2023-03-25T08:04:28.318Z,53.25
2023-03-25T08:06:56.177Z,53.74
2023-03-25T08:09:24.717Z,54.50
2023-03-25T08:11:52.591Z,52.93
2023-03-25T08:14:20.499Z,52.25
2023-03-25T08:16:48.533Z,52.16
2023-03-25T08:19:17.912Z,52.43
2023-03-25T08:21:45.981Z,50.82
2023-03-25T08:24:13.963Z,50.31
2023-03-25T08:26:42.397Z,50.12
2023-03-25T08:29:11.538Z,49.72
2023-03-25T08:31:40.641Z,48.77
2023-03-25T08:34:09.022Z,48.51
2023-03-25T08:36:39.480Z,49.75
2023-03-25T08:39:11.925Z,50.63
2023-03-25T08:41:40.767Z,52.58
2023-03-25T08:44:08.986Z,51.08
2023-03-25T08:46:37.498Z,50.66
2023-03-25T08:49:06.518Z,50.00
2023-03-25T08:51:34.630Z,48.13
2023-03-25T08:54:03.943Z,48.19
2023-03-25T08:56:31.980Z,46.58
2023-03-25T08:58:59.916Z,46.36
2023-03-25T09:01:28.061Z,47.39
2023-03-25T09:03:57.838Z,49.55
2023-03-25T09:06:26.237Z,49.18
2023-03-25T09:08:56.180Z,47.59
2023-03-25T09:11:36.142Z,48.61
2023-03-25T09:14:05.757Z,48.74
2023-03-25T09:16:34.478Z,47.06
2023-03-25T09:19:02.616Z,45.88
2023-03-25T09:21:30.916Z,44.78
2023-03-25T09:23:58.869Z,44.84
2023-03-25T09:26:28.217Z,44.30
2023-03-25T09:28:56.618Z,44.39
2023-03-25T09:31:25.334Z,42.12
2023-03-25T09:33:53.413Z,41.60
2023-03-25T09:36:21.370Z,42.60
2023-03-25T09:38:49.337Z,42.28
2023-03-25T09:41:34.787Z,43.13
2023-03-25T09:44:14.677Z,41.80
2023-03-25T09:46:45.792Z,41.09
2023-03-25T09:49:17.878Z,42.28
2023-03-25T09:51:47.449Z,43.37
2023-03-25T09:54:21.720Z,43.79
2023-03-25T09:56:52.810Z,44.18
2023-03-25T09:59:23.325Z,43.43
2023-03-25T10:01:59.497Z,43.29
2023-03-25T10:04:51.546Z,43.09
2023-03-25T10:07:33.895Z,42.95
2023-03-25T10:10:07.841Z,42.92
2023-03-25T10:12:46.343Z,42.03
2023-03-25T10:15:31.250Z,40.25
2023-03-25T10:18:19.172Z,40.45
2023-03-25T10:20:55.844Z,39.38
2023-03-25T10:23:30.460Z,40.04
2023-03-25T10:26:02.774Z,39.17
2023-03-25T10:28:37.718Z,38.28
2023-03-25T10:31:08.165Z,36.71
2023-03-25T10:33:38.626Z,35.74
2023-03-25T10:36:13.707Z,35.52
2023-03-25T10:38:43.798Z,36.16
2023-03-25T10:41:20.913Z,35.46
2023-03-25T10:43:52.249Z,34.57
2023-03-25T10:46:28.491Z,32.50
2023-03-25T10:48:56.991Z,33.61
2023-03-25T10:51:29.434Z,34.18
2023-03-25T10:53:57.656Z,35.24
2023-03-25T10:56:34.359Z,35.20
2023-03-25T10:59:12.408Z,35.65
2023-03-25T11:01:42.751Z,36.45
2023-03-25T11:04:14.685Z,35.56
2023-03-25T11:06:46.870Z,35.48
2023-03-25T11:09:24.457Z,34.85
2023-03-25T11:11:54.130Z,34.88
2023-03-25T11:14:27.498Z,34.60
2023-03-25T11:16:58.231Z,34.32
2023-03-25T11:19:29.934Z,35.01
2023-03-25T11:22:01.860Z,34.64
2023-03-25T11:24:33.581Z,34.15
2023-03-25T11:27:02.895Z,33.86
2023-03-25T11:29:33.216Z,33.95
2023-03-25T11:32:08.370Z,35.21
2023-03-25T11:34:42.393Z,35.27
2023-03-25T11:37:18.230Z,33.99
2023-03-25T11:39:55.305Z,33.06
2023-03-25T11:42:34.161Z,32.46
2023-03-25T11:45:04.075Z,33.27
2023-03-25T11:47:34.502Z,33.45
2023-03-25T11:50:03.316Z,33.71
2023-03-25T11:52:40.566Z,33.82
2023-03-25T11:55:17.689Z,32.45
2023-03-25T11:57:47.847Z,32.61
2023-03-25T12:00:29.532Z,31.63
2023-03-25T12:03:02.469Z,31.16
2023-03-25T12:05:30.968Z,32.53
2023-03-25T12:08:06.363Z,32.92
2023-03-25T12:10:47.933Z,34.29
2023-03-25T12:13:23.162Z,35.42
2023-03-25T12:16:01.578Z,34.99
2023-03-25T12:18:48.413Z,35.27
2023-03-25T12:21:28.736Z,36.23
2023-03-25T12:27:12.201Z,36.95
2023-03-25T12:29:50.306Z,37.32
2023-03-25T12:32:38.467Z,37.49
2023-03-25T12:35:27.706Z,37.33
2023-03-25T12:38:11.212Z,37.37
2023-03-25T12:40:56.874Z,37.01
2023-03-25T12:43:33.445Z,37.20
2023-03-25T12:46:14.433Z,37.23
2023-03-25T12:49:05.252Z,37.43
2023-03-25T12:51:44.532Z,37.27
2023-03-25T12:54:30.015Z,37.05
2023-03-25T12:57:05.519Z,37.00
2023-03-25T12:59:47.093Z,36.98
2023-03-25T13:02:35.702Z,37.41
2023-03-25T13:05:19.128Z,37.46
2023-03-25T13:07:50.937Z,37.98
2023-03-25T13:10:21.363Z,38.34
2023-03-25T13:12:52.121Z,38.27
2023-03-25T13:15:27.392Z,38.44
2023-03-25T13:17:59.804Z,38.56
2023-03-25T13:20:32.763Z,38.70
2023-03-25T13:23:03.686Z,38.74
2023-03-25T13:25:37.540Z,39.07
2023-03-25T13:28:11.623Z,39.24
2023-03-25T13:30:45.952Z,40.52
2023-03-25T13:33:17.945Z,40.84
2023-03-25T13:35:51.641Z,41.07
2023-03-25T13:38:27.260Z,41.33
2023-03-25T13:41:08.015Z,42.19
2023-03-25T13:43:41.346Z,41.15
2023-03-25T13:46:11.970Z,42.22
2023-03-25T13:48:46.798Z,43.75
2023-03-25T13:51:16.164Z,44.95
2023-03-25T13:53:49.914Z,46.05
2023-03-25T13:56:47.042Z,45.35
2023-03-25T13:59:42.210Z,48.63
2023-03-25T14:02:33.548Z,49.10
2023-03-25T14:05:31.516Z,48.90
2023-03-25T14:08:31.335Z,48.94
2023-03-25T14:11:15.574Z,50.10
2023-03-25T14:13:48.363Z,50.94
2023-03-25T14:16:18.173Z,51.25
2023-03-25T14:18:50.804Z,52.49
2023-03-25T14:21:31.865Z,52.61
2023-03-25T14:24:14.649Z,53.53
2023-03-25T14:26:47.236Z,53.98
2023-03-25T14:29:25.804Z,55.45
2023-03-25T14:32:06.902Z,56.93
2023-03-25T14:34:39.385Z,58.20
2023-03-25T14:37:28.887Z,60.63
2023-03-25T14:40:00.857Z,64.44
2023-03-25T14:42:43.417Z,66.36
2023-03-25T14:46:02.258Z,70.67
2023-03-25T14:48:34.927Z,76.83
2023-03-25T14:51:23.358Z,82.17
2023-03-25T14:53:54.234Z,89.37
2023-03-25T14:56:27.539Z,92.67
2023-03-25T14:58:58.737Z,94.65
2023-03-25T15:01:32.816Z,98.11
2023-03-25T15:04:18.200Z,96.48
2023-03-25T15:06:49.222Z,95.46
2023-03-25T15:09:20.325Z,94.54
2023-03-25T15:11:59.798Z,93.00
2023-03-25T15:14:31.632Z,92.22
2023-03-25T15:17:03.507Z,90.26
2023-03-25T15:19:31.383Z,89.17
2023-03-25T15:22:24.120Z,89.72
2023-03-25T15:25:00.914Z,90.34
2023-03-25T15:28:09.638Z,90.27
2023-03-25T15:30:59.005Z,88.58
2023-03-25T15:33:46.089Z,88.31
2023-03-25T15:36:36.202Z,87.72
2023-03-25T15:39:18.950Z,85.85
2023-03-25T15:42:13.553Z,87.28
2023-03-25T15:45:10.290Z,85.14
2023-03-25T15:47:54.179Z,84.05
2023-03-25T15:50:31.708Z,84.92
2023-03-25T15:53:18.458Z,86.08
2023-03-25T15:55:51.263Z,87.29
2023-03-25T15:58:27.025Z,87.04
2023-03-25T16:01:04.061Z,86.88
2023-03-25T16:03:34.961Z,84.88
2023-03-25T16:06:07.504Z,85.36
2023-03-25T16:08:41.149Z,84.06
2023-03-25T16:11:17.051Z,83.19
2023-03-25T16:13:45.337Z,82.34
2023-03-25T16:16:17.925Z,81.59
2023-03-25T16:18:48.471Z,80.80
2023-03-25T16:21:16.546Z,80.95
2023-03-25T16:23:44.512Z,80.09
2023-03-25T16:26:18.390Z,80.20
2023-03-25T16:28:49.246Z,80.62
2023-03-25T16:31:34.974Z,80.75
2023-03-25T16:34:04.174Z,80.81
2023-03-25T16:36:34.849Z,80.55
2023-03-25T16:39:02.803Z,80.22
2023-03-25T16:41:32.497Z,80.55
2023-03-25T16:44:03.058Z,80.29
2023-03-25T16:46:33.118Z,80.19
2023-03-25T16:49:01.631Z,80.71
2023-03-25T16:51:32.219Z,81.15
2023-03-25T16:54:00.552Z,82.46
2023-03-25T16:56:31.060Z,81.51
2023-03-25T16:59:03.909Z,82.26
2023-03-25T17:01:40.469Z,83.36
2023-03-25T17:04:18.840Z,83.60
2023-03-25T17:06:52.941Z,84.77
2023-03-25T17:09:22.939Z,85.22
2023-03-25T17:11:56.855Z,85.22
2023-03-25T17:14:29.883Z,86.26
2023-03-25T17:17:04.947Z,87.71
2023-03-25T17:19:33.558Z,89.29
2023-03-25T17:22:16.533Z,91.54
2023-03-25T17:24:50.811Z,95.58
2023-03-25T17:27:24.957Z,100.00
2023-03-25T17:29:55.033Z,100.00
2023-03-25T17:32:24.530Z,100.00
2023-03-25T17:35:06.632Z,100.00
2023-03-25T17:37:34.972Z,100.00
2023-03-25T17:40:11.536Z,100.00
2023-03-25T17:42:41.627Z,100.00
2023-03-25T17:45:15.622Z,100.00
2023-03-25T17:47:44.976Z,100.00
2023-03-25T17:50:16.824Z,100.00
2023-03-25T17:52:44.983Z,100.00
2023-03-25T17:55:13.986Z,100.00
2023-03-25T17:57:42.489Z,100.00
2023-03-25T18:00:17.263Z,100.00
2023-03-25T18:02:46.784Z,100.00
2023-03-25T18:05:15.620Z,100.00
2023-03-25T18:07:43.652Z,100.00
2023-03-25T18:10:19.112Z,100.00
2023-03-25T18:12:47.492Z,100.00
2023-03-25T18:15:15.556Z,100.00
2023-03-25T18:17:43.880Z,100.00
2023-03-25T18:20:17.110Z,100.00
2023-03-25T18:22:48.385Z,100.00
2023-03-25T18:25:16.388Z,100.00
2023-03-25T18:27:45.869Z,100.00
2023-03-25T18:30:31.697Z,100.00
2023-03-25T18:33:00.766Z,100.00
2023-03-25T18:35:30.973Z,100.00
2023-03-25T18:38:00.233Z,100.00
2023-03-25T18:40:49.741Z,100.00
2023-03-25T18:43:39.828Z,100.00
2023-03-25T18:46:16.220Z,100.00
2023-03-25T18:48:49.369Z,100.00
2023-03-25T18:51:30.314Z,100.00
2023-03-25T18:54:03.673Z,100.00
2023-03-25T18:56:32.548Z,100.00
2023-03-25T18:59:02.651Z,100.00
2023-03-25T19:01:32.159Z,100.00
2023-03-25T19:04:06.320Z,100.00
2023-03-25T19:06:50.819Z,100.00
2023-03-25T19:09:32.461Z,100.00
2023-03-25T19:12:05.279Z,100.00
2023-03-25T19:14:56.294Z,100.00
2023-03-25T19:17:38.883Z,100.00
2023-03-25T19:20:12.627Z,100.00
2023-03-25T19:22:51.497Z,100.00
2023-03-25T19:25:24.087Z,100.00
2023-03-25T19:28:06.972Z,100.00
2023-03-25T19:33:27.070Z,100.00
2023-03-25T19:36:04.516Z,100.00
2023-03-25T19:38:39.461Z,100.00
2023-03-25T19:41:08.905Z,100.00
2023-03-25T19:43:43.250Z,100.00
2023-03-25T19:46:16.992Z,100.00
2023-03-25T19:48:49.593Z,100.00
2023-03-25T19:51:25.894Z,100.00
2023-03-25T19:53:55.315Z,100.00
2023-03-25T19:59:53.513Z,100.00
2023-03-25T20:05:40.707Z,100.00
2023-03-25T20:08:37.806Z,100.00
2023-03-25T20:11:57.004Z,100.00
2023-03-25T20:14:43.428Z,100.00
2023-03-25T20:23:50.548Z,100.00
2023-03-25T20:26:29.034Z,100.00
2023-03-25T20:29:16.777Z,100.00
2023-03-25T20:32:02.734Z,100.00
2023-03-25T20:34:40.071Z,100.00
2023-03-25T20:40:18.469Z,100.00
2023-03-25T20:43:07.763Z,100.00
2023-03-25T20:45:51.966Z,100.00
2023-03-25T20:48:32.494Z,100.00
2023-03-25T20:51:16.603Z,100.00
2023-03-25T20:53:51.699Z,100.00
2023-03-25T20:56:26.973Z,100.00
2023-03-25T20:58:58.778Z,100.00
2023-03-25T21:01:37.050Z,100.00
2023-03-25T21:04:07.363Z,100.00
2023-03-25T21:06:35.762Z,100.00
2023-03-25T21:09:25.818Z,100.00
2023-03-25T21:12:43.744Z,100.00
2023-03-25T21:15:49.867Z,100.00
2023-03-25T21:18:33.340Z,100.00
2023-03-25T21:21:04.060Z,100.00
2023-03-25T21:23:44.657Z,100.00
2023-03-25T21:26:17.718Z,100.00
2023-03-25T21:28:51.583Z,100.00
2023-03-25T21:31:53.802Z,100.00
2023-03-25T21:34:38.270Z,100.00
2023-03-25T21:37:21.746Z,100.00
2023-03-25T21:39:53.048Z,100.00
2023-03-25T21:42:22.779Z,100.00
2023-03-25T21:44:56.880Z,100.00
2023-03-25T21:47:34.480Z,100.00
2023-03-25T21:50:09.937Z,100.00
2023-03-25T21:52:38.470Z,100.00
2023-03-25T21:55:11.434Z,100.00
2023-03-25T21:57:45.296Z,100.00
2023-03-25T22:00:17.304Z,100.00
2023-03-25T22:06:02.027Z,100.00
2023-03-25T22:08:31.487Z,100.00
2023-03-25T22:11:04.103Z,100.00
2023-03-25T22:13:34.527Z,100.00
2023-03-25T22:16:07.367Z,100.00
2023-03-25T22:18:37.816Z,100.00
2023-03-25T22:21:17.720Z,100.00
2023-03-25T22:23:52.668Z,100.00
2023-03-25T22:26:22.280Z,100.00
2023-03-25T22:28:57.856Z,100.00
2023-03-25T22:31:32.277Z,100.00
2023-03-25T22:34:11.149Z,100.00
2023-03-25T22:36:53.552Z,100.00
2023-03-25T22:39:28.380Z,100.00
2023-03-25T22:42:14.459Z,100.00
2023-03-25T22:44:56.664Z,100.00
2023-03-25T22:47:35.493Z,100.00
2023-03-25T22:50:16.244Z,100.00
2023-03-25T22:52:49.485Z,99.85
2023-03-25T22:55:17.556Z,100.00
2023-03-25T22:57:48.799Z,99.06
2023-03-25T23:00:19.035Z,98.22
2023-03-25T23:02:49.581Z,97.53
2023-03-25T23:05:23.918Z,93.99
2023-03-25T23:08:03.170Z,93.01
2023-03-25T23:10:31.168Z,94.22
2023-03-25T23:12:59.520Z,96.02
2023-03-25T23:15:30.251Z,98.54
2023-03-25T23:17:58.654Z,100.00
2023-03-25T23:20:29.423Z,100.00
2023-03-25T23:22:58.430Z,100.00
2023-03-25T23:25:26.678Z,100.00
2023-03-25T23:27:58.043Z,100.00
2023-03-25T23:30:26.038Z,100.00
2023-03-25T23:32:53.971Z,100.00
2023-03-25T23:35:22.081Z,100.00
2023-03-25T23:37:53.499Z,100.00
2023-03-25T23:40:22.478Z,100.00
2023-03-25T23:42:51.684Z,100.00
2023-03-25T23:45:20.125Z,100.00
2023-03-25T23:47:50.302Z,100.00
2023-03-25T23:50:19.606Z,100.00
2023-03-25T23:52:48.792Z,100.00
2023-03-25T23:58:41.741Z,100.00
